createdAt,value
2022-08-02T00:01:07.111Z,1.00
2022-08-02T00:03:09.873Z,1.00
2022-08-02T00:05:12.828Z,1.00
2022-08-02T00:07:15.860Z,1.00
2022-08-02T00:09:18.592Z,1.00
2022-08-02T00:11:24.072Z,1.00
2022-08-02T00:13:28.239Z,1.00
2022-08-02T00:15:30.959Z,1.00
2022-08-02T00:17:33.681Z,1.00
2022-08-02T00:19:36.481Z,1.00
2022-08-02T00:21:39.187Z,1.00
2022-08-02T00:24:03.311Z,1.00
2022-08-02T00:26:04.605Z,1.00
2022-08-02T00:28:07.431Z,1.00
2022-08-02T00:30:12.575Z,1.00
2022-08-02T00:32:15.626Z,1.00
2022-08-02T00:34:28.573Z,1.00
2022-08-02T00:36:33.888Z,1.00
2022-08-02T00:38:36.589Z,1.00
2022-08-02T00:40:39.507Z,1.00
2022-08-02T00:42:44.086Z,1.00
2022-08-02T00:44:46.827Z,1.00
2022-08-02T00:46:50.856Z,1.00
2022-08-02T00:48:56.053Z,1.00
2022-08-02T00:50:58.803Z,1.00
2022-08-02T00:53:01.506Z,1.00
2022-08-02T00:55:04.463Z,1.00
2022-08-02T00:57:07.183Z,1.00
2022-08-02T00:59:09.933Z,1.00
2022-08-02T01:01:16.302Z,1.00
2022-08-02T01:03:20.373Z,1.00
2022-08-02T01:05:23.164Z,1.00
2022-08-02T01:07:25.887Z,1.00
2022-08-02T01:09:28.825Z,1.00
2022-08-02T01:11:31.615Z,1.00
2022-08-02T01:13:34.342Z,1.00
2022-08-02T01:15:38.337Z,1.00
2022-08-02T01:17:45.424Z,1.00
2022-08-02T01:19:52.294Z,1.00
2022-08-02T01:22:00.677Z,1.00
2022-08-02T01:24:12.197Z,1.00
2022-08-02T01:26:35.921Z,1.00
2022-08-02T01:28:42.268Z,1.00
2022-08-02T01:30:45.468Z,1.00
2022-08-02T01:32:51.781Z,1.00
2022-08-02T01:34:56.932Z,1.00
2022-08-02T01:37:01.943Z,1.00
2022-08-02T01:39:05.423Z,1.00
2022-08-02T01:41:08.989Z,1.00
2022-08-02T01:43:12.317Z,1.00
2022-08-02T01:45:16.502Z,1.00
2022-08-02T01:47:23.763Z,1.00
2022-08-02T01:49:26.521Z,1.00
2022-08-02T01:51:46.590Z,1.00
2022-08-02T01:53:49.772Z,1.00
2022-08-02T01:55:58.052Z,1.00
2022-08-02T01:58:03.246Z,1.00
2022-08-02T02:00:07.612Z,1.00
2022-08-02T02:02:11.867Z,1.00
2022-08-02T02:04:14.905Z,1.00
2022-08-02T02:06:17.929Z,1.00
2022-08-02T02:08:26.929Z,1.00
2022-08-02T02:10:32.395Z,1.00
2022-08-02T02:12:35.633Z,1.00
2022-08-02T02:14:38.433Z,1.00
2022-08-02T02:16:41.998Z,1.00
2022-08-02T02:18:46.067Z,1.00
2022-08-02T02:20:48.812Z,1.00
2022-08-02T02:22:51.677Z,1.00
2022-08-02T02:24:54.409Z,1.00
2022-08-02T02:26:57.661Z,1.00
2022-08-02T02:29:00.950Z,1.00
2022-08-02T02:31:06.229Z,1.00
2022-08-02T02:33:09.500Z,1.00
2022-08-02T02:35:13.560Z,1.00
2022-08-02T02:37:19.505Z,1.00
2022-08-02T02:39:23.270Z,1.00
2022-08-02T02:41:26.964Z,1.00
2022-08-02T02:43:32.396Z,1.00
2022-08-02T02:45:35.141Z,1.00
2022-08-02T02:47:40.779Z,1.00
2022-08-02T02:49:44.621Z,1.00
2022-08-02T02:51:48.708Z,1.00
2022-08-02T02:54:30.115Z,1.00
2022-08-02T02:56:14.468Z,1.00
2022-08-02T02:58:17.203Z,1.00
2022-08-02T03:00:40.000Z,1.00
2022-08-02T03:02:42.577Z,1.00
2022-08-02T03:04:55.825Z,1.00
2022-08-02T03:07:02.406Z,1.00
2022-08-02T03:09:05.248Z,1.00
2022-08-02T03:11:08.565Z,1.00
2022-08-02T03:13:11.358Z,1.00
2022-08-02T03:15:14.101Z,1.00
2022-08-02T03:17:17.429Z,1.00
2022-08-02T03:19:20.861Z,1.00
2022-08-02T03:21:23.665Z,1.00
2022-08-02T03:23:27.763Z,1.00
2022-08-02T03:25:30.524Z,1.00
2022-08-02T03:27:33.231Z,1.00
2022-08-02T03:29:35.952Z,1.00
2022-08-02T03:31:38.889Z,1.00
2022-08-02T03:33:41.641Z,1.00
2022-08-02T03:35:45.001Z,1.00
2022-08-02T03:37:47.714Z,1.00
2022-08-02T03:39:52.699Z,1.00
2022-08-02T03:41:55.967Z,1.00
2022-08-02T03:43:58.672Z,1.00
2022-08-02T03:46:01.534Z,1.00
2022-08-02T03:48:12.635Z,1.00
2022-08-02T03:50:27.735Z,1.00
2022-08-02T03:52:30.461Z,1.00
2022-08-02T03:54:34.754Z,1.00
2022-08-02T03:56:49.643Z,1.00
2022-08-02T03:58:55.447Z,1.00
2022-08-02T04:00:58.628Z,1.00
2022-08-02T04:03:01.388Z,1.00
2022-08-02T04:05:04.188Z,1.00
2022-08-02T04:07:07.438Z,1.00
2022-08-02T04:09:10.479Z,1.00
2022-08-02T04:11:30.989Z,1.00
2022-08-02T04:13:37.136Z,1.00
2022-08-02T04:15:39.977Z,1.00
2022-08-02T04:17:45.321Z,1.00
2022-08-02T04:19:49.797Z,1.00
2022-08-02T04:21:52.780Z,1.00
2022-08-02T04:23:55.500Z,1.00
2022-08-02T04:26:00.154Z,1.00
2022-08-02T04:28:17.239Z,1.00
2022-08-02T04:30:22.358Z,1.00
2022-08-02T04:32:25.069Z,1.00
2022-08-02T04:34:27.791Z,1.00
2022-08-02T04:36:31.666Z,1.00
2022-08-02T04:38:34.818Z,1.00
2022-08-02T04:40:37.890Z,1.00
2022-08-02T04:42:41.650Z,19.40
2022-08-02T04:44:44.366Z,28.40
2022-08-02T04:46:48.437Z,24.00
2022-08-02T04:48:51.196Z,16.40
2022-08-02T04:50:53.929Z,11.30
2022-08-02T04:52:56.645Z,1.00
2022-08-02T04:54:59.354Z,16.80
2022-08-02T04:57:02.237Z,19.30
2022-08-02T04:59:04.946Z,18.80
2022-08-02T05:01:07.731Z,18.30
2022-08-02T05:03:12.399Z,24.10
2022-08-02T05:05:15.378Z,40.80
2022-08-02T05:07:18.133Z,67.00
2022-08-02T05:09:21.029Z,74.50
2022-08-02T05:11:36.102Z,64.60
2022-08-02T05:13:59.312Z,60.30
2022-08-02T05:16:04.495Z,79.00
2022-08-02T05:18:07.245Z,98.20
2022-08-02T05:20:13.568Z,79.00
2022-08-02T05:22:16.301Z,77.20
2022-08-02T05:24:19.025Z,61.00
2022-08-02T05:26:21.939Z,51.90
2022-08-02T05:28:25.099Z,26.80
2022-08-02T05:30:27.893Z,36.70
2022-08-02T05:32:30.630Z,15.80
2022-08-02T05:34:33.360Z,28.40
2022-08-02T05:36:37.445Z,41.10
2022-08-02T05:38:50.082Z,51.90
2022-08-02T05:40:54.510Z,71.20
2022-08-02T05:42:57.849Z,63.60
2022-08-02T05:45:00.668Z,39.00
2022-08-02T05:47:03.464Z,7.90
2022-08-02T05:49:06.242Z,1.00
2022-08-02T05:51:14.105Z,1.00
2022-08-02T05:53:23.387Z,53.00
2022-08-02T05:55:27.624Z,79.90
2022-08-02T05:57:34.611Z,22.70
2022-08-02T05:59:51.654Z,1.00
2022-08-02T06:01:57.902Z,1.00
2022-08-02T06:04:01.539Z,1.00
2022-08-02T06:06:06.985Z,1.00
2022-08-02T06:08:10.283Z,1.00
2022-08-02T06:10:14.809Z,1.00
2022-08-02T06:12:18.155Z,1.00
2022-08-02T06:14:21.661Z,1.00
2022-08-02T06:16:31.810Z,1.00
2022-08-02T06:18:35.593Z,1.00
2022-08-02T06:20:38.373Z,1.00
2022-08-02T06:22:42.666Z,1.00
2022-08-02T06:24:45.945Z,1.00
2022-08-02T06:26:52.674Z,1.00
2022-08-02T06:28:56.400Z,1.00
2022-08-02T06:30:59.121Z,1.00
2022-08-02T06:33:01.901Z,1.00
2022-08-02T06:35:05.289Z,1.00
2022-08-02T06:37:13.350Z,1.00
2022-08-02T06:39:20.623Z,1.00
2022-08-02T06:41:23.362Z,1.00
2022-08-02T06:43:32.198Z,1.00
2022-08-02T06:45:35.197Z,1.00
2022-08-02T06:47:37.920Z,1.00
2022-08-02T06:49:52.766Z,1.00
2022-08-02T06:51:57.288Z,1.00
2022-08-02T06:54:00.093Z,1.00
2022-08-02T06:56:02.824Z,1.00
2022-08-02T06:58:09.949Z,1.00
2022-08-02T07:00:14.878Z,1.00
2022-08-02T07:02:17.623Z,1.00
2022-08-02T07:04:20.434Z,1.00
2022-08-02T07:06:23.169Z,1.00
2022-08-02T07:08:26.273Z,1.00
2022-08-02T07:10:30.142Z,1.00
2022-08-02T07:12:34.181Z,1.00
2022-08-02T07:14:36.914Z,1.00
2022-08-02T07:16:40.980Z,1.00
2022-08-02T07:18:43.696Z,1.00
2022-08-02T07:20:46.433Z,1.00
2022-08-02T07:22:49.199Z,1.00
2022-08-02T07:24:52.026Z,1.00
2022-08-02T07:27:10.634Z,1.00
2022-08-02T07:29:14.643Z,1.00
2022-08-02T07:31:17.345Z,1.00
2022-08-02T07:33:37.805Z,1.00
2022-08-02T07:35:42.383Z,1.00
2022-08-02T07:37:54.765Z,1.00
2022-08-02T07:40:00.634Z,1.00
2022-08-02T07:42:05.965Z,1.00
2022-08-02T07:44:10.124Z,1.00
2022-08-02T07:46:12.837Z,1.00
2022-08-02T07:48:15.569Z,1.00
2022-08-02T07:50:20.462Z,1.00
2022-08-02T07:52:23.188Z,1.00
2022-08-02T07:54:26.093Z,1.00
2022-08-02T07:56:28.880Z,1.00
2022-08-02T07:58:31.620Z,1.00
2022-08-02T08:00:34.532Z,1.00
2022-08-02T08:02:37.917Z,1.00
2022-08-02T08:04:40.637Z,1.00
2022-08-02T08:06:44.751Z,1.00
2022-08-02T08:08:47.463Z,1.00
2022-08-02T08:10:50.280Z,1.00
2022-08-02T08:12:53.013Z,1.00
2022-08-02T08:14:55.750Z,1.00
2022-08-02T08:16:58.489Z,1.00
2022-08-02T08:19:02.360Z,1.00
2022-08-02T08:21:06.096Z,1.00
2022-08-02T08:23:10.183Z,1.00
2022-08-02T08:25:12.913Z,1.00
2022-08-02T08:27:15.764Z,1.00
2022-08-02T08:29:18.549Z,1.00
2022-08-02T08:31:21.345Z,1.00
2022-08-02T08:33:24.151Z,1.00
2022-08-02T08:35:26.879Z,1.00
2022-08-02T08:37:34.545Z,1.00
2022-08-02T08:39:56.274Z,1.00
2022-08-02T08:42:01.357Z,1.00
2022-08-02T08:44:04.452Z,1.00
2022-08-02T08:46:07.161Z,1.00
2022-08-02T08:48:13.752Z,1.00
2022-08-02T08:50:24.776Z,1.00
2022-08-02T08:52:28.048Z,1.00
2022-08-02T08:54:30.975Z,1.00
2022-08-02T08:56:36.016Z,1.00
2022-08-02T08:58:39.086Z,1.00
2022-08-02T09:00:42.401Z,1.00
2022-08-02T09:02:45.254Z,1.00
2022-08-02T09:04:54.656Z,1.00
2022-08-02T09:06:57.986Z,1.00
2022-08-02T09:09:00.756Z,1.00
2022-08-02T09:11:03.474Z,1.00
2022-08-02T09:13:37.794Z,1.00
2022-08-02T09:15:32.265Z,1.00
2022-08-02T09:17:34.987Z,1.00
2022-08-02T09:19:37.990Z,1.00
2022-08-02T09:21:49.713Z,1.00
2022-08-02T09:23:53.017Z,1.00
2022-08-02T09:26:00.944Z,1.00
2022-08-02T09:28:07.740Z,1.00
2022-08-02T09:30:14.297Z,1.00
2022-08-02T09:32:18.684Z,1.00
2022-08-02T09:34:22.628Z,1.00
2022-08-02T09:36:25.667Z,1.00
2022-08-02T09:38:28.628Z,1.00
2022-08-02T09:40:36.123Z,1.00
2022-08-02T09:42:39.316Z,1.00
2022-08-02T09:44:52.988Z,1.00
2022-08-02T09:46:55.710Z,1.00
2022-08-02T09:48:59.277Z,1.00
2022-08-02T09:51:02.037Z,1.00
2022-08-02T09:53:05.042Z,1.00
2022-08-02T09:55:08.166Z,1.00
2022-08-02T09:57:10.901Z,1.00
2022-08-02T09:59:13.885Z,1.00
2022-08-02T10:01:18.054Z,1.00
2022-08-02T10:03:39.047Z,1.00
2022-08-02T10:05:55.693Z,1.00
2022-08-02T10:07:59.116Z,1.00
2022-08-02T10:10:01.833Z,1.00
2022-08-02T10:12:04.980Z,1.00
2022-08-02T10:14:08.399Z,1.00
2022-08-02T10:16:11.452Z,1.00
2022-08-02T10:18:37.154Z,1.00
2022-08-02T10:20:41.440Z,1.00
2022-08-02T10:22:44.173Z,1.00
2022-08-02T10:24:48.456Z,1.00
2022-08-02T10:26:51.526Z,1.00
2022-08-02T10:28:54.587Z,1.00
2022-08-02T10:30:57.318Z,1.00
2022-08-02T10:33:00.549Z,1.00
2022-08-02T10:35:19.578Z,1.00
2022-08-02T10:37:29.261Z,1.00
2022-08-02T10:39:39.806Z,1.00
2022-08-02T10:41:43.875Z,1.00
2022-08-02T10:43:49.118Z,1.00
2022-08-02T10:45:52.063Z,1.00
2022-08-02T10:48:02.404Z,1.00
2022-08-02T10:50:07.514Z,1.00
2022-08-02T10:52:11.079Z,1.00
2022-08-02T10:54:19.300Z,1.00
2022-08-02T10:56:24.492Z,1.00
2022-08-02T10:58:30.042Z,1.00
2022-08-02T11:00:33.153Z,1.00
2022-08-02T11:02:38.586Z,1.00
2022-08-02T11:05:04.918Z,1.00
2022-08-02T11:07:09.875Z,1.00
2022-08-02T11:09:31.430Z,1.00
2022-08-02T11:11:54.014Z,1.00
2022-08-02T11:14:04.114Z,1.00
2022-08-02T11:16:11.655Z,1.00
2022-08-02T11:18:14.727Z,1.00
2022-08-02T11:20:18.863Z,1.00
2022-08-02T11:22:25.855Z,1.00
2022-08-02T11:24:29.945Z,1.00
2022-08-02T11:26:56.781Z,1.00
2022-08-02T11:29:00.073Z,1.00
2022-08-02T11:31:03.068Z,1.00
2022-08-02T11:33:05.901Z,1.00
2022-08-02T11:35:09.336Z,1.00
2022-08-02T11:37:12.692Z,1.00
2022-08-02T11:39:17.560Z,1.00
2022-08-02T11:41:46.641Z,1.00
2022-08-02T11:43:44.442Z,1.00
2022-08-02T11:45:47.307Z,1.00
2022-08-02T11:47:50.704Z,1.00
2022-08-02T11:49:53.460Z,1.00
2022-08-02T11:52:05.039Z,1.00
2022-08-02T11:54:07.809Z,1.00
2022-08-02T11:56:11.918Z,1.00
2022-08-02T11:58:14.639Z,1.00
2022-08-02T12:00:18.414Z,1.00
2022-08-02T12:02:21.837Z,1.00
2022-08-02T12:04:24.551Z,1.00
2022-08-02T12:06:29.725Z,1.00
2022-08-02T12:08:33.482Z,1.00
2022-08-02T12:10:36.885Z,1.00
2022-08-02T12:12:50.728Z,1.00
2022-08-02T12:14:54.548Z,1.00
2022-08-02T12:17:14.837Z,1.00
2022-08-02T12:19:19.692Z,1.00
2022-08-02T12:21:23.158Z,1.00
2022-08-02T12:23:26.111Z,1.00
2022-08-02T12:25:34.525Z,1.00
2022-08-02T12:27:38.523Z,1.00
2022-08-02T12:29:57.961Z,1.00
2022-08-02T12:32:01.702Z,1.00
2022-08-02T12:34:04.427Z,1.00
2022-08-02T12:36:16.175Z,1.00
2022-08-02T12:38:18.932Z,1.00
2022-08-02T12:40:24.207Z,1.00
2022-08-02T12:42:28.267Z,1.00
2022-08-02T12:44:30.984Z,1.00
2022-08-02T12:46:35.685Z,1.00
2022-08-02T12:49:02.382Z,1.00
2022-08-02T12:51:21.080Z,1.00
2022-08-02T12:53:23.801Z,1.00
2022-08-02T12:56:01.071Z,1.00
2022-08-02T12:57:53.900Z,1.00
2022-08-02T12:59:56.643Z,1.00
2022-08-02T13:02:04.537Z,1.00
2022-08-02T13:04:13.336Z,1.00
2022-08-02T13:06:42.267Z,1.00
2022-08-02T13:08:39.676Z,1.00
2022-08-02T13:10:42.513Z,1.00
2022-08-02T13:12:46.853Z,1.00
2022-08-02T13:14:49.577Z,1.00
2022-08-02T13:16:52.293Z,1.00
2022-08-02T13:18:56.366Z,1.00
2022-08-02T13:20:59.221Z,1.00
2022-08-02T13:23:04.032Z,1.00
2022-08-02T13:25:07.515Z,1.00
2022-08-02T13:27:10.276Z,1.00
2022-08-02T13:29:13.247Z,1.00
2022-08-02T13:31:36.321Z,1.00
2022-08-02T13:33:38.737Z,1.00
2022-08-02T13:35:42.813Z,1.00
2022-08-02T13:37:45.561Z,1.00
2022-08-02T13:40:11.866Z,1.00
2022-08-02T13:42:15.670Z,1.00
2022-08-02T13:44:19.913Z,1.00
2022-08-02T13:46:29.454Z,1.00
2022-08-02T13:48:32.407Z,1.00
2022-08-02T13:50:35.143Z,1.00
2022-08-02T13:52:39.212Z,1.00
2022-08-02T13:54:41.943Z,1.00
2022-08-02T13:56:44.794Z,1.00
2022-08-02T13:58:47.533Z,1.00
2022-08-02T14:00:50.259Z,1.00
2022-08-02T14:02:52.964Z,1.00
2022-08-02T14:04:55.692Z,1.00
2022-08-02T14:06:59.202Z,1.00
2022-08-02T14:09:03.340Z,1.00
2022-08-02T14:11:06.730Z,1.00
2022-08-02T14:13:09.456Z,1.00
2022-08-02T14:15:12.332Z,1.00
2022-08-02T14:17:15.729Z,1.00
2022-08-02T14:19:18.451Z,1.00
2022-08-02T14:21:21.152Z,1.00
2022-08-02T14:23:50.265Z,1.00
2022-08-02T14:25:47.993Z,1.00
2022-08-02T14:27:50.715Z,1.00
2022-08-02T14:29:53.446Z,1.00
2022-08-02T14:31:56.287Z,1.00
2022-08-02T14:33:59.071Z,1.00
2022-08-02T14:36:01.817Z,1.00
2022-08-02T14:38:04.670Z,1.00
2022-08-02T14:40:27.669Z,1.00
2022-08-02T14:42:32.641Z,1.00
2022-08-02T14:44:35.436Z,1.00
2022-08-02T14:46:40.385Z,1.00
2022-08-02T14:48:43.106Z,1.00
2022-08-02T14:50:45.910Z,1.00
2022-08-02T14:52:48.888Z,1.00
2022-08-02T14:54:52.557Z,1.00
2022-08-02T14:56:55.264Z,1.00
2022-08-02T14:58:59.301Z,1.00
2022-08-02T15:01:02.093Z,1.00
2022-08-02T15:03:04.880Z,1.00
2022-08-02T15:05:11.880Z,1.00
2022-08-02T15:07:14.731Z,1.00
2022-08-02T15:09:17.522Z,1.00
2022-08-02T15:11:20.255Z,1.00
2022-08-02T15:13:22.973Z,1.00
2022-08-02T15:15:27.725Z,1.00
2022-08-02T15:17:31.825Z,1.00
2022-08-02T15:19:56.263Z,1.00
2022-08-02T15:21:57.314Z,1.00
2022-08-02T15:24:00.029Z,1.00
2022-08-02T15:26:02.761Z,1.00
2022-08-02T15:28:06.837Z,1.00
2022-08-02T15:30:10.214Z,1.00
2022-08-02T15:32:14.747Z,1.00
2022-08-02T15:34:18.632Z,1.00
2022-08-02T15:36:22.582Z,1.00
2022-08-02T15:38:25.295Z,1.00
2022-08-02T15:40:28.157Z,1.00
2022-08-02T15:42:31.098Z,1.00
2022-08-02T15:44:33.886Z,1.00
2022-08-02T15:46:37.578Z,1.00
2022-08-02T15:48:41.634Z,1.00
2022-08-02T15:50:44.758Z,1.00
2022-08-02T15:52:47.516Z,1.00
2022-08-02T15:54:50.228Z,1.00
2022-08-02T15:56:52.958Z,1.00
2022-08-02T15:58:56.891Z,1.00
2022-08-02T16:01:01.719Z,1.00
2022-08-02T16:03:04.489Z,1.00
2022-08-02T16:05:13.673Z,1.00
2022-08-02T16:07:16.798Z,1.00
2022-08-02T16:09:19.520Z,1.00
2022-08-02T16:11:22.242Z,1.00
2022-08-02T16:16:46.679Z,1.00
2022-08-02T16:18:49.455Z,1.00
2022-08-02T16:20:53.511Z,1.00
2022-08-02T16:22:58.015Z,1.00
2022-08-02T16:25:00.758Z,1.00
2022-08-02T16:27:03.471Z,1.00
2022-08-02T16:29:06.388Z,1.00
2022-08-02T16:31:11.638Z,1.00
2022-08-02T16:33:14.561Z,1.00
2022-08-02T16:35:17.499Z,1.00
2022-08-02T16:37:21.562Z,1.00
2022-08-02T16:39:24.289Z,1.00
2022-08-02T16:41:52.107Z,1.00
2022-08-02T16:43:49.895Z,1.00
2022-08-02T16:45:52.620Z,1.00
2022-08-02T16:47:59.418Z,1.00
2022-08-02T16:50:10.390Z,1.00
2022-08-02T16:52:13.444Z,1.00
2022-08-02T16:54:17.506Z,1.00
2022-08-02T16:56:21.775Z,1.00
2022-08-02T16:58:26.294Z,1.00
2022-08-02T17:00:29.522Z,1.00
2022-08-02T17:02:32.228Z,1.00
2022-08-02T17:04:34.965Z,1.00
2022-08-02T17:06:39.927Z,1.00
2022-08-02T17:08:50.868Z,1.00
2022-08-02T17:11:03.312Z,1.00
2022-08-02T17:13:11.357Z,1.00
2022-08-02T17:16:07.450Z,1.00
2022-08-02T17:17:41.854Z,1.00
2022-08-02T17:19:46.369Z,1.00
2022-08-02T17:21:50.856Z,1.00
2022-08-02T17:24:06.417Z,1.00
2022-08-02T17:26:13.327Z,1.00
2022-08-02T17:28:16.620Z,1.00
2022-08-02T17:30:26.514Z,1.00
2022-08-02T17:32:29.961Z,1.00
2022-08-02T17:34:32.680Z,1.00
2022-08-02T17:36:36.392Z,1.00
2022-08-02T17:38:50.193Z,1.00
2022-08-02T17:40:54.781Z,1.00
2022-08-02T17:42:58.819Z,1.00
2022-08-02T17:45:16.552Z,1.00
2022-08-02T17:47:30.645Z,1.00
2022-08-02T17:49:37.180Z,1.00
2022-08-02T17:52:48.910Z,1.00
2022-08-02T17:54:09.528Z,1.00
2022-08-02T17:56:12.529Z,1.00
2022-08-02T17:58:16.573Z,1.00
2022-08-02T18:00:20.012Z,1.00
2022-08-02T18:02:22.720Z,1.00
2022-08-02T18:04:26.876Z,1.00
2022-08-02T18:06:30.691Z,1.00
2022-08-02T18:08:33.457Z,1.00
2022-08-02T18:10:36.652Z,1.00
2022-08-02T18:12:40.259Z,1.00
2022-08-02T18:14:49.127Z,1.00
2022-08-02T18:16:52.298Z,1.00
2022-08-02T18:18:55.275Z,1.00
2022-08-02T18:21:16.006Z,1.00
2022-08-02T18:23:24.692Z,1.00
2022-08-02T18:25:37.847Z,1.00
2022-08-02T18:27:48.339Z,1.00
2022-08-02T18:30:00.122Z,1.00
2022-08-02T18:32:11.589Z,1.00
2022-08-02T18:34:14.884Z,1.00
2022-08-02T18:36:24.834Z,1.00
2022-08-02T18:38:30.154Z,1.00
2022-08-02T18:40:33.066Z,1.00
2022-08-02T18:42:35.772Z,1.00
2022-08-02T18:44:38.771Z,1.00
2022-08-02T18:46:43.669Z,1.00
2022-08-02T18:48:48.105Z,1.00
2022-08-02T18:50:51.063Z,1.00
2022-08-02T18:52:53.969Z,1.00
2022-08-02T18:54:59.884Z,1.00
2022-08-02T18:57:12.362Z,1.00
2022-08-02T18:59:25.332Z,1.00
2022-08-02T19:01:32.028Z,1.00
2022-08-02T19:03:37.487Z,1.00
2022-08-02T19:05:52.264Z,1.00
2022-08-02T19:07:57.081Z,1.00
2022-08-02T19:10:00.860Z,1.00
2022-08-02T19:12:04.291Z,1.00
2022-08-02T19:14:07.018Z,1.00
2022-08-02T19:16:09.749Z,1.00
2022-08-02T19:18:13.694Z,1.00
2022-08-02T19:20:19.682Z,1.00
2022-08-02T19:22:22.491Z,1.00
2022-08-02T19:24:25.252Z,1.00
2022-08-02T19:26:29.029Z,1.00
2022-08-02T19:28:31.759Z,1.00
2022-08-02T19:30:36.280Z,1.00
2022-08-02T19:32:58.653Z,1.00
2022-08-02T19:35:04.057Z,1.00
2022-08-02T19:37:24.064Z,1.00
2022-08-02T19:39:26.971Z,1.00
2022-08-02T19:41:29.781Z,1.00
2022-08-02T19:44:25.012Z,1.00
2022-08-02T19:46:15.951Z,1.00
2022-08-02T19:48:23.950Z,1.00
2022-08-02T19:50:27.672Z,1.00
2022-08-02T19:52:31.735Z,1.00
2022-08-02T19:54:54.279Z,1.00
2022-08-02T19:56:57.139Z,1.00
2022-08-02T19:58:59.834Z,1.00
2022-08-02T20:01:02.877Z,1.00
2022-08-02T20:03:05.621Z,1.00
2022-08-02T20:05:23.728Z,1.00
2022-08-02T20:07:54.656Z,1.00
2022-08-02T20:09:51.944Z,1.00
2022-08-02T20:11:55.206Z,1.00
2022-08-02T20:13:58.116Z,1.00
2022-08-02T20:16:04.188Z,1.00
2022-08-02T20:18:07.491Z,1.00
2022-08-02T20:20:11.767Z,1.00
2022-08-02T20:22:15.895Z,1.00
2022-08-02T20:24:18.972Z,1.00
2022-08-02T20:26:24.055Z,1.00
2022-08-02T20:28:26.769Z,1.00
2022-08-02T20:30:29.820Z,1.00
2022-08-02T20:32:34.950Z,1.00
2022-08-02T20:34:39.976Z,1.00
2022-08-02T20:36:42.700Z,1.00
2022-08-02T20:38:56.733Z,1.00
2022-08-02T20:40:59.443Z,1.00
2022-08-02T20:43:03.508Z,1.00
2022-08-02T20:45:12.801Z,1.00
2022-08-02T20:47:18.153Z,1.00
2022-08-02T20:49:41.139Z,1.00
2022-08-02T20:51:43.942Z,1.00
2022-08-02T20:53:56.217Z,1.00
2022-08-02T20:55:59.301Z,1.00
2022-08-02T20:58:04.421Z,1.00
2022-08-02T21:00:08.336Z,1.00
2022-08-02T21:02:12.719Z,1.00
2022-08-02T21:04:16.642Z,1.00
2022-08-02T21:06:22.113Z,1.00
2022-08-02T21:08:26.374Z,1.00
2022-08-02T21:10:29.184Z,1.00
2022-08-02T21:12:32.083Z,1.00
2022-08-02T21:14:36.689Z,1.00
2022-08-02T21:16:40.577Z,1.00
2022-08-02T21:18:43.384Z,1.00
2022-08-02T21:20:46.117Z,1.00
2022-08-02T21:22:48.861Z,1.00
2022-08-02T21:24:52.371Z,1.00
2022-08-02T21:26:55.456Z,1.00
2022-08-02T21:28:58.275Z,1.00
2022-08-02T21:31:05.172Z,1.00
2022-08-02T21:33:07.914Z,1.00
2022-08-02T21:35:26.063Z,1.00
2022-08-02T21:37:33.015Z,1.00
2022-08-02T21:39:36.536Z,1.00
2022-08-02T21:41:46.689Z,1.00
2022-08-02T21:43:50.005Z,1.00
2022-08-02T21:45:55.701Z,1.00
2022-08-02T21:48:00.023Z,1.00
2022-08-02T21:50:10.103Z,1.00
2022-08-02T21:52:17.014Z,1.00
2022-08-02T21:54:21.525Z,1.00
2022-08-02T21:56:24.495Z,1.00
2022-08-02T21:58:27.523Z,1.00
2022-08-02T22:00:30.842Z,1.00
2022-08-02T22:02:33.578Z,1.00
2022-08-02T22:04:37.634Z,1.00
2022-08-02T22:06:40.406Z,1.00
2022-08-02T22:08:44.356Z,1.00
2022-08-02T22:11:03.379Z,1.00
2022-08-02T22:13:25.083Z,1.00
2022-08-02T22:15:41.250Z,1.00
2022-08-02T22:17:53.457Z,1.00
2022-08-02T22:20:04.061Z,1.00
2022-08-02T22:22:06.804Z,1.00
2022-08-02T22:24:12.906Z,1.00
2022-08-02T22:26:22.081Z,1.00
2022-08-02T22:28:37.715Z,1.00
2022-08-02T22:30:43.021Z,1.00
2022-08-02T22:33:15.328Z,1.00
2022-08-02T22:35:19.679Z,1.00
2022-08-02T22:38:14.872Z,1.00
2022-08-02T22:40:09.061Z,1.00
2022-08-02T22:42:07.875Z,1.00
2022-08-02T22:44:10.576Z,1.00
2022-08-02T22:46:15.585Z,1.00
2022-08-02T22:48:19.467Z,1.00
2022-08-02T22:50:25.873Z,1.00
2022-08-02T22:52:28.721Z,1.00
2022-08-02T22:54:31.492Z,1.00
2022-08-02T22:56:34.733Z,1.00
2022-08-02T23:01:00.303Z,1.00
2022-08-02T23:03:03.204Z,1.00
2022-08-02T23:05:10.184Z,1.00
2022-08-02T23:07:14.241Z,1.00
2022-08-02T23:09:16.957Z,1.00
2022-08-02T23:11:19.851Z,1.00
2022-08-02T23:13:27.955Z,1.00
2022-08-02T23:15:51.204Z,1.00
2022-08-02T23:18:11.605Z,1.00
2022-08-02T23:20:13.432Z,1.00
2022-08-02T23:22:17.761Z,1.00
2022-08-02T23:24:22.480Z,1.00
2022-08-02T23:26:25.263Z,1.00
2022-08-02T23:28:28.011Z,1.00
2022-08-02T23:30:30.715Z,1.00
2022-08-02T23:32:33.440Z,1.00
2022-08-02T23:34:36.144Z,1.00
2022-08-02T23:36:38.866Z,1.00
2022-08-02T23:38:42.947Z,1.00
2022-08-02T23:40:45.673Z,1.00
2022-08-02T23:42:48.815Z,1.00
2022-08-02T23:44:51.633Z,1.00
2022-08-02T23:46:54.873Z,1.00
2022-08-02T23:48:57.658Z,1.00
2022-08-02T23:51:00.430Z,1.00
2022-08-02T23:53:03.175Z,1.00
2022-08-02T23:55:08.253Z,1.00
2022-08-02T23:57:20.566Z,1.00
2022-08-02T23:59:24.197Z,1.00
